Terminal Aerodrome Forecast
Issued by NWS Louisville, KY

Home | Current Version | Previous Version | Text Only | Print | Product List | Glossary On
Versions: 1 2 3 4 5 6 7 8 9 10 11 12 13 14 15 16 17 18 19 20 21 22 23
000
FTUS43 KLMK 270500
TAFSDF
TAF
KSDF 270520Z 2706/2812 18006KT P6SM FEW012 BKN250
     FM270900 20006KT 6SM BR SCT012
     FM271400 21009KT P6SM SCT040 SCT250
     FM271900 22011G18KT P6SM VCTS BKN050CB
     FM280100 22005KT P6SM BKN100=

USA.gov is the U.S. government's official web portal to all federal, state and local government web resources and services.